Time;durP1;ratioP1;P1;durP2;ratioP2;P2;SDS_P1;SDS_P2;PMS_P1;PMS_P2;Temp;Humidity;BMP_temperature;BMP_pressure;BME280_temperature;BME280_humidity;BME280_pressure;Samples;Min_cycle;Max_cycle;Signal;HPM_P1;HPM_P2
2023/07/31 00:00:49;;;;;;;2.55;1.17;;;;;;;17.44;100.00;100147.81;5120339;28;20035;-72
2023/07/31 00:03:19;;;;;;;4.22;1.27;;;;;;;17.47;100.00;100139.69;5137135;28;20049;-74
2023/07/31 00:05:49;;;;;;;5.22;1.35;;;;;;;17.31;100.00;100131.13;5120601;28;20527;-72
2023/07/31 00:08:19;;;;;;;2.22;1.27;;;;;;;17.27;100.00;100130.47;5132176;28;20035;-75
2023/07/31 00:10:53;;;;;;;3.67;1.50;;;;;;;17.17;100.00;100124.13;5143720;28;20394;-73
2023/07/31 00:13:23;;;;;;;2.58;1.23;;;;;;;17.15;100.00;100122.56;5138435;28;20050;-74
2023/07/31 00:15:53;;;;;;;3.65;1.48;;;;;;;17.11;100.00;100123.75;5162486;28;20031;-73
2023/07/31 00:18:24;;;;;;;3.10;1.30;;;;;;;17.14;100.00;100118.25;5149945;28;20029;-74
2023/07/31 00:20:54;;;;;;;4.72;1.38;;;;;;;17.13;100.00;100116.56;5141865;28;20078;-74
2023/07/31 00:23:24;;;;;;;2.95;1.20;;;;;;;17.12;100.00;100113.06;5124644;28;20033;-74
2023/07/31 00:25:54;;;;;;;3.28;1.30;;;;;;;17.24;100.00;100116.63;5122592;28;20028;-72
2023/07/31 00:28:25;;;;;;;2.72;1.10;;;;;;;17.18;100.00;100119.72;5131003;28;20392;-74
2023/07/31 00:30:55;;;;;;;2.25;1.13;;;;;;;17.17;100.00;100115.38;5125949;28;20114;-74
2023/07/31 00:33:25;;;;;;;3.10;1.40;;;;;;;17.19;100.00;100111.69;5146796;28;20380;-74
2023/07/31 00:35:55;;;;;;;2.80;1.40;;;;;;;17.29;100.00;100107.44;5146424;28;20028;-73
2023/07/31 00:38:26;;;;;;;2.33;1.20;;;;;;;17.36;100.00;100103.47;5152803;28;20637;-74
2023/07/31 00:40:56;;;;;;;3.85;1.50;;;;;;;17.23;100.00;100107.88;5129181;28;20675;-74
2023/07/31 00:43:26;;;;;;;4.63;1.83;;;;;;;17.22;100.00;100103.56;5122799;28;20516;-74
2023/07/31 00:45:57;;;;;;;3.28;1.23;;;;;;;17.33;100.00;100098.34;5134872;28;20031;-74
2023/07/31 00:48:28;;;;;;;3.80;1.60;;;;;;;17.21;100.00;100107.16;5171331;28;20106;-75
2023/07/31 00:50:58;;;;;;;5.50;1.70;;;;;;;16.95;100.00;100102.00;5122486;28;20051;-74
2023/07/31 00:53:29;;;;;;;4.68;1.70;;;;;;;16.86;100.00;100103.47;5128958;28;20021;-73
2023/07/31 00:56:00;;;;;;;6.43;1.88;;;;;;;16.93;100.00;100098.59;5150154;28;20531;-74
2023/07/31 00:58:30;;;;;;;6.78;1.95;;;;;;;16.99;100.00;100090.25;5130250;28;20028;-74
2023/07/31 01:01:01;;;;;;;5.38;1.75;;;;;;;16.89;100.00;100089.19;5145417;28;20059;-74
2023/07/31 01:03:31;;;;;;;3.60;1.60;;;;;;;17.04;100.00;100085.50;5140913;28;20127;-74
2023/07/31 01:06:14;;;;;;;5.72;1.80;;;;;;;17.19;100.00;100084.44;5135075;28;20027;-75
2023/07/31 01:09:02;;;;;;;3.70;1.65;;;;;;;17.06;100.00;100083.59;5144670;28;20173;-74
2023/07/31 01:11:43;;;;;;;4.65;1.48;;;;;;;17.18;100.00;100082.75;5139637;28;20036;-74
2023/07/31 01:14:13;;;;;;;4.45;1.80;;;;;;;17.09;100.00;100070.16;5150513;23;20050;-69
2023/07/31 01:16:43;;;;;;;3.23;1.73;;;;;;;17.07;100.00;100069.44;5148625;28;20236;-71
2023/07/31 01:19:17;;;;;;;10.40;2.50;;;;;;;17.03;100.00;100068.81;5144215;28;20286;-70
2023/07/31 01:22:03;;;;;;;5.82;2.05;;;;;;;17.06;100.00;100065.97;5145596;28;20297;-69
2023/07/31 01:24:55;;;;;;;8.95;2.63;;;;;;;16.95;100.00;100059.75;5122815;28;20115;-71
2023/07/31 01:27:30;;;;;;;5.15;1.63;;;;;;;16.98;100.00;100055.06;5122954;28;20031;-70
2023/07/31 01:30:01;;;;;;;;;;;;;;;17.16;100.00;100055.59;5111401;28;20211;-71
2023/07/31 01:32:32;;;;;;;8.65;1.75;;;;;;;17.08;100.00;100047.34;5123110;28;19951;-71
2023/07/31 01:35:02;;;;;;;6.18;1.35;;;;;;;17.10;100.00;100042.81;5127213;28;20449;-71
2023/07/31 01:37:33;;;;;;;4.70;1.48;;;;;;;17.23;100.00;100051.56;5116897;28;20053;-71
2023/07/31 01:40:05;;;;;;;4.47;1.08;;;;;;;17.34;100.00;100046.41;5185818;28;20035;-71
2023/07/31 01:42:35;;;;;;;2.60;1.17;;;;;;;17.33;100.00;100036.75;5125984;28;20490;-71
2023/07/31 01:45:06;;;;;;;3.22;1.05;;;;;;;17.18;100.00;100037.84;5126241;28;20038;-71
2023/07/31 01:47:36;;;;;;;5.70;1.25;;;;;;;16.99;100.00;100033.00;5121898;28;20035;-71
2023/07/31 01:50:06;;;;;;;4.70;1.00;;;;;;;17.15;100.00;100030.13;5120620;28;20512;-71
2023/07/31 01:52:37;;;;;;;4.28;1.20;;;;;;;17.05;100.00;100024.66;5131499;28;20371;-71
2023/07/31 01:55:07;;;;;;;4.60;1.13;;;;;;;17.13;100.00;100032.06;5122179;28;20038;-71
2023/07/31 01:57:37;;;;;;;5.85;1.00;;;;;;;17.11;100.00;100024.22;5122364;28;20377;-71
2023/07/31 02:00:08;;;;;;;2.65;0.80;;;;;;;17.02;100.00;100029.31;5123820;28;20099;-70
2023/07/31 02:02:38;;;;;;;4.28;1.00;;;;;;;16.94;100.00;100027.22;5125100;28;20030;-71
2023/07/31 02:05:08;;;;;;;1.88;0.90;;;;;;;17.08;100.00;100023.59;5122922;28;20080;-70
2023/07/31 02:07:39;;;;;;;3.90;1.08;;;;;;;16.97;100.00;100021.72;5119121;28;20420;-71
2023/07/31 02:10:09;;;;;;;2.38;0.80;;;;;;;16.92;100.00;100009.78;5116571;28;20050;-70
2023/07/31 02:12:39;;;;;;;5.10;0.90;;;;;;;16.94;100.00;100010.53;5124254;28;20076;-71
2023/07/31 02:15:09;;;;;;;2.03;0.83;;;;;;;16.90;100.00;100012.53;5123680;28;20715;-71
2023/07/31 02:17:40;;;;;;;1.15;0.57;;;;;;;17.03;100.00;99997.53;5118916;28;20294;-71
2023/07/31 02:20:10;;;;;;;4.07;1.00;;;;;;;16.90;100.00;100003.75;5115379;28;20257;-71
2023/07/31 02:22:41;;;;;;;3.92;0.80;;;;;;;16.78;100.00;99999.38;5117344;28;20035;-70
2023/07/31 02:25:11;;;;;;;1.38;0.70;;;;;;;16.90;100.00;99993.19;5120638;28;20031;-70
2023/07/31 02:27:41;;;;;;;2.25;0.50;;;;;;;16.94;100.00;99986.78;5125773;28;20068;-71
2023/07/31 02:30:12;;;;;;;1.85;0.68;;;;;;;16.83;100.00;99986.69;5146121;28;20027;-71
2023/07/31 02:32:42;;;;;;;2.42;0.52;;;;;;;16.91;100.00;99979.06;5133677;28;20021;-71
2023/07/31 02:35:15;;;;;;;2.60;0.73;;;;;;;16.86;100.00;99981.19;5130656;28;20035;-71
2023/07/31 02:37:45;;;;;;;3.28;0.60;;;;;;;16.98;100.00;99977.69;5131023;28;20076;-71
2023/07/31 02:40:15;;;;;;;1.38;0.60;;;;;;;16.87;100.00;99985.50;5125348;28;20027;-70
2023/07/31 02:42:46;;;;;;;2.30;0.50;;;;;;;16.95;100.00;99976.09;5144700;28;20122;-70
2023/07/31 02:45:16;;;;;;;1.20;0.45;;;;;;;16.97;100.00;99978.63;5118385;28;20027;-70
2023/07/31 02:47:46;;;;;;;1.73;0.70;;;;;;;16.96;100.00;99980.41;5127024;28;20023;-70
2023/07/31 02:50:17;;;;;;;2.50;0.85;;;;;;;17.01;100.00;99970.38;5126486;28;20023;-70
2023/07/31 02:52:47;;;;;;;2.65;0.80;;;;;;;16.91;100.00;99973.78;5143641;28;20028;-71
2023/07/31 02:55:17;;;;;;;1.65;0.68;;;;;;;16.90;100.00;99961.53;5118904;28;20043;-70
2023/07/31 02:57:47;;;;;;;2.25;0.80;;;;;;;16.89;100.00;99965.13;5102555;28;20109;-69
2023/07/31 03:00:18;;;;;;;1.92;1.00;;;;;;;16.85;100.00;99955.75;5121470;28;20118;-71
2023/07/31 03:02:49;;;;;;;2.03;0.80;;;;;;;16.95;100.00;99959.44;5152363;28;20028;-69
2023/07/31 03:05:19;;;;;;;1.85;0.77;;;;;;;16.88;100.00;99955.53;5137075;28;20066;-70
2023/07/31 03:07:49;;;;;;;1.17;0.60;;;;;;;16.86;100.00;99949.50;5124583;28;20377;-69
2023/07/31 03:10:19;;;;;;;2.15;0.70;;;;;;;16.82;100.00;99951.50;5138943;28;20031;-70
2023/07/31 03:12:50;;;;;;;2.28;0.75;;;;;;;16.84;100.00;99957.53;5139749;28;20370;-69
2023/07/31 03:15:20;;;;;;;1.50;0.70;;;;;;;16.73;100.00;99942.56;5118666;28;20046;-69
2023/07/31 03:17:50;;;;;;;2.53;0.82;;;;;;;16.83;100.00;99945.28;5135104;28;20090;-70
2023/07/31 03:20:20;;;;;;;3.00;0.80;;;;;;;16.77;100.00;99945.72;5127120;28;20548;-70
2023/07/31 03:22:51;;;;;;;4.22;0.70;;;;;;;16.74;100.00;99945.09;5130987;28;20026;-70
2023/07/31 03:25:21;;;;;;;2.40;1.00;;;;;;;16.77;100.00;99944.91;5104507;28;20116;-69
2023/07/31 03:27:51;;;;;;;1.95;0.70;;;;;;;16.87;100.00;99944.13;5126128;28;20089;-70
2023/07/31 03:30:22;;;;;;;2.95;0.80;;;;;;;16.87;100.00;99948.56;5134371;28;20023;-70
2023/07/31 03:32:52;;;;;;;1.58;0.73;;;;;;;16.84;100.00;99946.97;5123906;28;20029;-71
2023/07/31 03:35:22;;;;;;;0.70;0.60;;;;;;;16.87;100.00;99945.91;5136567;28;20490;-70
2023/07/31 03:37:52;;;;;;;1.58;0.80;;;;;;;16.91;100.00;99947.38;5119205;28;20031;-70
2023/07/31 03:40:23;;;;;;;1.75;0.68;;;;;;;16.96;100.00;99946.09;5125334;28;20027;-70
2023/07/31 03:42:53;;;;;;;2.65;0.70;;;;;;;16.91;100.00;99947.38;5148554;28;20032;-71
2023/07/31 03:45:23;;;;;;;3.17;0.70;;;;;;;16.90;100.00;99951.81;5108058;28;20035;-70
2023/07/31 03:47:54;;;;;;;1.23;0.70;;;;;;;16.86;100.00;99952.16;5102101;28;20038;-69
2023/07/31 03:50:25;;;;;;;2.15;0.70;;;;;;;17.03;100.00;99954.44;5114366;28;20061;-70
2023/07/31 03:52:55;;;;;;;1.20;0.70;;;;;;;16.95;100.00;99960.25;5181510;28;20118;-71
2023/07/31 03:55:25;;;;;;;0.90;0.52;;;;;;;16.98;100.00;99959.19;5121948;28;20034;-71
2023/07/31 03:57:55;;;;;;;2.13;0.70;;;;;;;16.95;100.00;99959.44;5099041;28;20508;-71
2023/07/31 04:00:27;;;;;;;3.97;1.10;;;;;;;16.89;100.00;99959.84;5121293;28;20130;-71
2023/07/31 04:02:57;;;;;;;2.22;0.80;;;;;;;16.97;100.00;99958.34;5145562;28;20480;-71
2023/07/31 04:05:30;;;;;;;2.10;0.70;;;;;;;17.05;100.00;99963.06;5104227;28;20077;-71
2023/07/31 04:08:00;;;;;;;1.90;0.80;;;;;;;16.92;100.00;99960.47;5120948;28;20300;-71
2023/07/31 04:10:33;;;;;;;2.73;0.70;;;;;;;16.84;100.00;99965.44;5123012;28;20310;-71
2023/07/31 04:13:03;;;;;;;4.10;1.42;;;;;;;16.82;100.00;99963.88;5113628;28;20302;-71
2023/07/31 04:15:33;;;;;;;3.42;1.50;;;;;;;16.90;100.00;99961.53;5132132;28;20069;-71
2023/07/31 04:18:05;;;;;;;1.98;0.90;;;;;;;16.97;100.00;99960.16;5134487;28;20029;-71
2023/07/31 04:20:35;;;;;;;3.17;1.20;;;;;;;17.04;100.00;99953.47;5133777;28;20488;-71
2023/07/31 04:23:05;;;;;;;3.47;1.10;;;;;;;16.96;100.00;99958.47;5117515;28;20069;-71
2023/07/31 04:25:35;;;;;;;5.28;1.17;;;;;;;16.94;100.00;99965.66;5106100;28;20049;-71
2023/07/31 04:28:07;;;;;;;2.85;1.10;;;;;;;16.95;100.00;99956.78;5121488;28;20074;-71
2023/07/31 04:30:37;;;;;;;2.67;1.08;;;;;;;17.01;100.00;99957.16;5123282;28;20068;-71
2023/07/31 04:33:08;;;;;;;3.40;1.25;;;;;;;16.96;100.00;99948.75;5103892;28;20043;-71
2023/07/31 04:35:38;;;;;;;4.13;1.20;;;;;;;17.05;100.00;99949.88;5106342;28;20034;-71
2023/07/31 04:38:08;;;;;;;4.35;1.25;;;;;;;17.06;100.00;99954.19;5117935;28;20041;-71
2023/07/31 04:40:38;;;;;;;2.45;1.00;;;;;;;17.12;100.00;99948.50;5133167;28;20031;-71
2023/07/31 04:43:09;;;;;;;2.85;1.05;;;;;;;17.16;100.00;99952.59;5129716;28;20035;-71
2023/07/31 04:45:39;;;;;;;2.65;0.90;;;;;;;17.12;100.00;99961.72;5132029;28;20023;-71
2023/07/31 04:48:09;;;;;;;1.95;0.90;;;;;;;17.02;100.00;99956.25;5128234;28;20035;-71
2023/07/31 04:50:40;;;;;;;1.90;0.90;;;;;;;16.99;100.00;99956.44;5135647;28;20550;-72
2023/07/31 04:53:10;;;;;;;2.30;0.75;;;;;;;16.93;100.00;99958.66;5109501;28;20019;-71
2023/07/31 04:55:41;;;;;;;3.28;1.05;;;;;;;17.04;100.00;99962.25;5122873;28;20027;-71
2023/07/31 04:58:11;;;;;;;1.10;0.60;;;;;;;17.02;100.00;99965.94;5127461;28;20023;-71
2023/07/31 05:00:41;;;;;;;1.10;0.65;;;;;;;16.92;100.00;99964.91;5131801;28;20033;-72
2023/07/31 05:03:12;;;;;;;2.27;0.70;;;;;;;16.86;100.00;99954.78;5109491;28;20128;-71
2023/07/31 05:05:42;;;;;;;1.75;0.70;;;;;;;16.83;100.00;99961.13;5131566;28;20275;-71
2023/07/31 05:08:12;;;;;;;1.63;0.70;;;;;;;16.56;100.00;99967.50;5132470;28;20039;-71
2023/07/31 05:10:43;;;;;;;2.20;0.68;;;;;;;16.51;100.00;99958.19;5127414;28;20088;-71
2023/07/31 05:13:13;;;;;;;1.42;0.60;;;;;;;16.62;100.00;99955.66;5123371;28;20035;-71
2023/07/31 05:15:44;;;;;;;3.55;0.80;;;;;;;16.51;100.00;99959.06;5153085;28;20140;-71
2023/07/31 05:18:14;;;;;;;2.63;0.80;;;;;;;16.61;100.00;99959.25;5132095;28;20027;-71
2023/07/31 05:20:44;;;;;;;1.23;0.50;;;;;;;16.65;100.00;99951.03;5162628;28;20074;-72
2023/07/31 05:23:14;;;;;;;3.22;0.65;;;;;;;16.54;100.00;99950.09;5122663;28;20042;-71
2023/07/31 05:25:45;;;;;;;1.30;0.70;;;;;;;16.43;100.00;99950.84;5141916;28;20052;-71
2023/07/31 05:28:15;;;;;;;1.80;0.80;;;;;;;16.34;100.00;99935.59;5129300;28;20024;-72
2023/07/31 05:30:45;;;;;;;1.73;0.80;;;;;;;16.48;100.00;99946.09;5135278;28;20039;-72
2023/07/31 05:33:15;;;;;;;1.60;0.70;;;;;;;16.54;100.00;99936.91;5119248;28;20471;-69
2023/07/31 05:35:46;;;;;;;1.92;0.60;;;;;;;16.41;100.00;99936.88;5128839;28;20289;-72
2023/07/31 05:38:16;;;;;;;2.20;0.90;;;;;;;16.33;100.00;99936.56;5132698;28;20270;-70
2023/07/31 05:40:47;;;;;;;1.17;0.55;;;;;;;16.41;100.00;99936.88;5137006;28;20043;-71
2023/07/31 05:43:17;;;;;;;2.80;1.15;;;;;;;16.31;100.00;99934.97;5142993;28;20031;-71
2023/07/31 05:45:48;;;;;;;1.48;0.75;;;;;;;16.44;100.00;99926.16;5141356;28;20036;-69
2023/07/31 05:48:18;;;;;;;1.63;0.80;;;;;;;16.47;100.00;99925.06;5133699;28;20345;-71
2023/07/31 05:50:49;;;;;;;2.10;1.00;;;;;;;16.34;100.00;99917.16;5119153;28;20052;-70
2023/07/31 05:53:19;;;;;;;3.72;1.10;;;;;;;16.36;100.00;99917.91;5147325;28;20369;-71
2023/07/31 05:55:49;;;;;;;2.08;1.00;;;;;;;16.46;100.00;99924.25;5129926;28;20481;-69
2023/07/31 05:58:19;;;;;;;4.15;1.27;;;;;;;16.54;100.00;99916.63;5135329;28;20029;-71
2023/07/31 06:00:50;;;;;;;3.90;1.27;;;;;;;16.53;100.00;99920.22;5155413;28;20461;-69
2023/07/31 06:03:20;;;;;;;5.18;1.20;;;;;;;16.56;100.00;99917.34;5137787;28;20081;-71
2023/07/31 06:05:50;;;;;;;3.13;1.10;;;;;;;16.57;100.00;99916.41;5140138;28;20034;-71
2023/07/31 06:08:21;;;;;;;3.58;1.50;;;;;;;16.60;100.00;99908.31;5129298;28;20031;-71
2023/07/31 06:10:51;;;;;;;5.57;1.40;;;;;;;16.64;100.00;99906.25;5141641;28;20460;-71
2023/07/31 06:13:21;;;;;;;9.55;1.40;;;;;;;16.73;100.00;99900.34;5141868;28;20030;-71
2023/07/31 06:15:51;;;;;;;3.30;1.15;;;;;;;16.92;100.00;99912.09;5134459;28;20034;-71
2023/07/31 06:18:22;;;;;;;2.70;1.30;;;;;;;16.80;100.00;99902.44;5124494;28;20031;-71
2023/07/31 06:20:53;;;;;;;2.03;0.82;;;;;;;17.05;100.00;99900.56;5122293;28;20079;-71
2023/07/31 06:23:23;;;;;;;4.47;1.10;;;;;;;17.06;100.00;99896.13;5120399;28;20492;-71
2023/07/31 06:25:54;;;;;;;2.33;1.08;;;;;;;17.24;100.00;99897.41;5141037;28;20026;-71
2023/07/31 06:28:31;;;;;;;2.60;1.40;;;;;;;17.35;100.00;99893.03;5139851;28;20560;-71
2023/07/31 06:31:02;;;;;;;5.85;2.05;;;;;;;17.42;100.00;99899.59;5155611;28;20025;-71
2023/07/31 06:33:32;;;;;;;4.85;2.03;;;;;;;17.54;100.00;99905.75;5106517;28;20035;-71
2023/07/31 06:36:02;;;;;;;4.53;2.33;;;;;;;17.80;100.00;99902.00;5123085;28;20025;-71
2023/07/31 06:38:33;;;;;;;7.60;2.75;;;;;;;17.98;100.00;99895.31;5137641;28;20547;-71
2023/07/31 06:41:03;;;;;;;6.57;2.53;;;;;;;17.87;100.00;99897.94;5124336;28;20034;-71
2023/07/31 06:43:34;;;;;;;6.47;2.42;;;;;;;18.10;100.00;99903.16;5139864;28;20027;-71
2023/07/31 06:46:06;;;;;;;6.27;2.43;;;;;;;17.95;100.00;99898.19;5123703;28;20076;-71
2023/07/31 06:48:37;;;;;;;5.30;2.55;;;;;;;17.96;100.00;99899.84;5125966;28;20301;-71
2023/07/31 06:51:07;;;;;;;4.97;2.40;;;;;;;17.88;100.00;99895.19;5141776;28;20035;-70
2023/07/31 06:53:38;;;;;;;6.25;2.60;;;;;;;17.84;100.00;99895.53;5156574;28;20029;-71
2023/07/31 06:56:08;;;;;;;5.00;2.40;;;;;;;17.98;100.00;99897.97;5107087;28;20058;-71
2023/07/31 06:58:39;;;;;;;5.30;2.47;;;;;;;18.15;100.00;99892.22;5154792;28;20029;-71
2023/07/31 07:01:09;;;;;;;7.13;2.40;;;;;;;18.20;100.00;99888.25;5129447;28;20190;-71
2023/07/31 07:03:40;;;;;;;4.57;2.22;;;;;;;18.33;100.00;99888.19;5130708;28;20476;-71
2023/07/31 07:06:10;;;;;;;6.60;2.20;;;;;;;18.18;100.00;99887.50;5124691;28;20393;-71
2023/07/31 07:08:40;;;;;;;5.93;2.65;;;;;;;18.27;100.00;99883.31;5126107;28;20019;-70
2023/07/31 07:11:11;;;;;;;6.95;2.92;;;;;;;18.20;100.00;99895.34;5122295;28;20023;-71
2023/07/31 07:13:41;;;;;;;4.60;2.20;;;;;;;18.29;100.00;99889.34;5110710;28;20492;-72
2023/07/31 07:16:11;;;;;;;5.93;2.85;;;;;;;18.22;100.00;99881.06;5149972;28;20245;-72
2023/07/31 07:18:42;;;;;;;5.53;2.42;;;;;;;18.08;100.00;99889.22;5137084;28;20440;-72
2023/07/31 07:21:15;;;;;;;5.68;2.78;;;;;;;18.21;100.00;99897.03;5136768;28;20034;-72
2023/07/31 07:23:45;;;;;;;8.40;2.97;;;;;;;18.20;100.00;99895.34;5138119;28;20513;-71
2023/07/31 07:26:16;;;;;;;5.65;2.75;;;;;;;18.26;100.00;99892.22;5122523;28;20061;-72
2023/07/31 07:28:46;;;;;;;6.50;2.58;;;;;;;18.21;100.00;99897.84;5124922;28;20425;-72
2023/07/31 07:31:16;;;;;;;7.68;2.78;;;;;;;18.18;100.00;99895.44;5122399;28;20019;-72
2023/07/31 07:33:46;;;;;;;5.10;2.72;;;;;;;18.25;100.00;99883.44;5125117;28;20030;-71
2023/07/31 07:36:17;;;;;;;8.68;3.10;;;;;;;18.14;100.00;99896.66;5122314;28;20184;-72
2023/07/31 07:38:47;;;;;;;9.68;3.28;;;;;;;18.28;100.00;99891.19;5122094;28;20496;-71
2023/07/31 07:41:17;;;;;;;6.22;3.13;;;;;;;18.21;100.00;99895.22;5137693;28;20038;-70
2023/07/31 07:43:48;;;;;;;8.32;3.20;;;;;;;18.17;100.00;99885.00;5140155;28;20386;-71
2023/07/31 07:46:18;;;;;;;8.13;3.00;;;;;;;18.28;100.00;99880.59;5154322;28;20030;-71
2023/07/31 07:48:48;;;;;;;7.72;3.10;;;;;;;18.41;100.00;99877.81;5139704;28;20763;-72
2023/07/31 07:51:19;;;;;;;7.78;3.40;;;;;;;18.52;100.00;99886.59;5142885;28;20023;-71
2023/07/31 07:53:49;;;;;;;9.60;3.65;;;;;;;18.46;100.00;99881.81;5125974;28;20058;-71
2023/07/31 07:56:19;;;;;;;9.07;3.80;;;;;;;18.53;100.00;99879.53;5164326;28;20379;-73
2023/07/31 07:58:50;;;;;;;9.13;3.47;;;;;;;18.29;100.00;99881.41;5165968;28;20272;-71
2023/07/31 08:01:20;;;;;;;12.45;3.92;;;;;;;18.33;100.00;99882.88;5112909;28;20028;-72
2023/07/31 08:03:51;;;;;;;8.40;3.13;;;;;;;18.40;100.00;99876.16;5137961;28;20488;-71
2023/07/31 08:06:22;;;;;;;7.60;3.13;;;;;;;18.56;100.00;99882.78;5110664;28;20331;-72
2023/07/31 08:08:52;;;;;;;9.43;3.40;;;;;;;18.60;100.00;99883.34;5122524;28;20027;-71
2023/07/31 08:11:23;;;;;;;9.20;3.28;;;;;;;18.64;100.00;99893.56;5107919;28;20035;-72
2023/07/31 08:13:53;;;;;;;12.30;3.78;;;;;;;18.67;100.00;99884.56;5124365;28;20037;-72
2023/07/31 08:16:24;;;;;;;10.77;3.70;;;;;;;18.80;100.00;99891.41;5128944;28;20116;-72
2023/07/31 08:18:54;;;;;;;9.00;3.50;;;;;;;19.07;100.00;99895.31;5154493;28;20279;-72
2023/07/31 08:21:24;;;;;;;11.93;3.88;;;;;;;19.06;100.00;99895.44;5138680;28;20047;-72
2023/07/31 08:23:54;;;;;;;7.65;3.17;;;;;;;19.47;100.00;99890.28;5125563;28;20560;-72
2023/07/31 08:26:25;;;;;;;6.32;3.10;;;;;;;19.79;100.00;99878.66;5164630;28;20498;-72
2023/07/31 08:28:55;;;;;;;7.80;3.05;;;;;;;19.66;100.00;99872.72;5111535;28;20038;-72
2023/07/31 08:31:26;;;;;;;5.63;2.85;;;;;;;19.79;100.00;99870.69;5124572;28;20045;-73
2023/07/31 08:33:57;;;;;;;7.63;3.05;;;;;;;19.72;100.00;99872.19;5136995;28;20026;-71
2023/07/31 08:36:27;;;;;;;9.27;3.28;;;;;;;20.06;100.00;99880.81;5146228;28;20385;-72
2023/07/31 08:38:57;;;;;;;8.38;3.00;;;;;;;20.05;100.00;99872.03;5151072;28;20432;-72
2023/07/31 08:41:28;;;;;;;7.63;3.08;;;;;;;19.85;100.00;99872.00;5127643;28;20069;-73
2023/07/31 08:43:59;;;;;;;8.65;3.10;;;;;;;19.54;100.00;99881.69;5104369;28;20045;-73
2023/07/31 08:46:30;;;;;;;6.63;2.65;;;;;;;19.10;100.00;99888.94;5129732;28;20035;-72
2023/07/31 08:49:05;;;;;;;7.75;3.20;;;;;;;19.10;100.00;99881.81;5126049;28;20034;-72
2023/07/31 08:51:36;;;;;;;6.20;2.90;;;;;;;18.89;100.00;99883.56;5121814;28;20042;-72
2023/07/31 08:54:06;;;;;;;9.93;3.50;;;;;;;18.80;100.00;99883.47;5116429;28;20046;-72
2023/07/31 08:56:37;;;;;;;8.13;2.90;;;;;;;18.83;100.00;99886.72;5100127;28;20050;-73
2023/07/31 08:59:08;;;;;;;6.38;3.10;;;;;;;18.67;100.00;99884.56;5116070;28;20047;-73
2023/07/31 09:01:45;;;;;;;8.30;3.38;;;;;;;18.57;100.00;99895.03;5117490;28;20034;-72
2023/07/31 09:04:19;;;;;;;9.90;4.25;;;;;;;18.52;100.00;99891.06;5105453;28;20499;-70
2023/07/31 09:06:54;;;;;;;7.38;3.25;;;;;;;18.51;100.00;99890.22;5124736;28;20523;-72
2023/07/31 09:09:25;;;;;;;10.70;3.33;;;;;;;18.47;100.00;99886.13;5126556;28;20066;-72
2023/07/31 09:11:57;;;;;;;9.38;3.40;;;;;;;18.61;100.00;99877.94;5128383;28;20061;-72
2023/07/31 09:14:27;;;;;;;6.22;3.00;;;;;;;18.68;100.00;99879.13;5106232;28;20043;-71
2023/07/31 09:16:59;;;;;;;7.60;3.20;;;;;;;18.60;100.00;99875.41;5106776;28;20369;-73
2023/07/31 09:19:34;;;;;;;9.70;3.50;;;;;;;18.75;100.00;99878.53;5104288;28;20027;-72
2023/07/31 09:22:06;;;;;;;8.15;3.50;;;;;;;18.81;100.00;99872.75;5123213;28;20031;-72
2023/07/31 09:24:36;;;;;;;9.10;3.50;;;;;;;18.80;100.00;99860.44;5122473;28;20116;-70
2023/07/31 09:27:06;;;;;;;10.25;3.42;;;;;;;18.75;100.00;99859.97;5106076;28;20411;-72
2023/07/31 09:29:37;;;;;;;8.65;3.28;;;;;;;18.94;100.00;99854.88;5117226;28;20038;-72
2023/07/31 09:32:16;;;;;;;7.45;3.10;;;;;;;18.55;100.00;99859.88;5117305;28;20043;-72
2023/07/31 09:34:46;;;;;;;7.50;3.08;;;;;;;18.59;100.00;99850.75;5117370;28;20051;-72
2023/07/31 09:37:17;;;;;;;5.33;3.00;;;;;;;18.86;100.00;99846.75;5116972;28;20026;-72
2023/07/31 09:39:48;;;;;;;8.82;3.20;;;;;;;18.97;100.00;99845.88;5100602;28;20374;-72
2023/07/31 09:42:26;;;;;;;7.53;3.17;;;;;;;18.90;100.00;99848.16;5120784;28;20031;-71
2023/07/31 09:45:08;;;;;;;8.00;3.03;;;;;;;18.94;100.00;99843.47;5116984;28;20047;-73
2023/07/31 09:47:38;;;;;;;6.03;2.88;;;;;;;18.87;100.00;99840.47;5117173;28;20143;-72
2023/07/31 09:50:09;;;;;;;5.95;2.47;;;;;;;18.75;100.00;99845.91;5119335;28;20172;-72
2023/07/31 09:52:40;;;;;;;9.77;3.75;;;;;;;18.71;100.00;99848.94;5101769;28;20023;-70
2023/07/31 09:55:10;;;;;;;7.03;3.17;;;;;;;18.76;100.00;99843.13;5117201;28;20035;-72
2023/07/31 09:57:45;;;;;;;9.77;3.00;;;;;;;18.74;100.00;99845.06;5122047;28;20026;-70
2023/07/31 10:00:17;;;;;;;11.70;3.28;;;;;;;18.66;100.00;99843.19;5116027;28;20035;-73
2023/07/31 10:02:48;;;;;;;8.55;3.15;;;;;;;18.60;100.00;99844.50;5127180;28;20507;-72
2023/07/31 10:05:20;;;;;;;8.68;3.05;;;;;;;18.55;100.00;99837.88;5121601;28;20555;-72
2023/07/31 10:07:54;;;;;;;6.28;2.83;;;;;;;18.72;100.00;99838.19;5153653;28;20083;-72
2023/07/31 10:10:27;;;;;;;6.40;3.10;;;;;;;18.68;100.00;99843.88;5119022;28;20039;-72
2023/07/31 10:12:59;;;;;;;5.93;2.75;;;;;;;18.67;100.00;99840.38;5133688;28;20277;-72
2023/07/31 10:15:30;;;;;;;6.38;3.03;;;;;;;18.85;100.00;99842.41;5119043;28;20039;-73
2023/07/31 10:18:01;;;;;;;6.30;2.75;;;;;;;18.75;100.00;99836.16;5098512;28;20289;-71
2023/07/31 10:20:32;;;;;;;5.05;2.50;;;;;;;18.81;100.00;99829.53;5117785;28;20043;-72
2023/07/31 10:23:03;;;;;;;4.55;1.92;;;;;;;18.75;100.00;99830.88;5114567;28;20078;-71
2023/07/31 10:25:34;;;;;;;5.22;2.40;;;;;;;19.12;100.00;99824.25;5118559;28;20142;-72
2023/07/31 10:28:04;;;;;;;5.35;2.40;;;;;;;19.16;100.00;99820.44;5119471;28;20105;-71
2023/07/31 10:30:38;;;;;;;5.07;1.92;;;;;;;19.51;100.00;99828.94;5107515;28;20234;-72
2023/07/31 10:33:08;;;;;;;6.88;2.08;;;;;;;19.92;100.00;99820.97;5122856;28;20105;-72
2023/07/31 10:35:39;;;;;;;4.10;1.67;;;;;;;20.08;100.00;99818.69;5116841;28;20035;-72
2023/07/31 10:38:13;;;;;;;5.68;1.80;;;;;;;20.61;100.00;99808.72;5101767;28;20115;-73
2023/07/31 10:40:44;;;;;;;3.80;1.75;;;;;;;20.78;100.00;99801.75;5098040;28;20088;-72
2023/07/31 10:43:26;;;;;;;4.07;1.63;;;;;;;20.55;100.00;99802.13;5101614;28;20023;-73
2023/07/31 10:45:56;;;;;;;4.68;1.92;;;;;;;20.90;100.00;99799.84;5117193;28;20038;-73
2023/07/31 10:48:33;;;;;;;3.45;1.52;;;;;;;20.77;100.00;99791.25;5115736;28;20030;-72
2023/07/31 10:51:12;;;;;;;2.63;1.33;;;;;;;20.67;100.00;99787.72;5107381;28;20142;-72
2023/07/31 10:53:42;;;;;;;5.80;1.63;;;;;;;20.44;100.00;99794.25;5122308;28;20027;-71
2023/07/31 10:56:13;;;;;;;3.72;1.30;;;;;;;20.71;100.00;99789.16;5119105;28;20034;-74
2023/07/31 10:58:44;;;;;;;6.68;1.60;;;;;;;20.52;100.00;99785.63;5114913;28;20493;-73
2023/07/31 11:01:15;;;;;;;3.22;1.42;;;;;;;20.41;100.00;99780.41;5118733;28;20295;-74
2023/07/31 11:03:46;;;;;;;5.55;1.70;;;;;;;20.44;100.00;99775.66;5116007;28;20046;-74
2023/07/31 11:06:17;;;;;;;3.15;1.35;;;;;;;20.56;100.00;99774.59;5118338;28;20038;-73
2023/07/31 11:08:48;;;;;;;2.80;1.40;;;;;;;20.75;100.00;99769.31;5122062;28;20035;-74
2023/07/31 11:11:20;;;;;;;4.80;1.80;;;;;;;21.21;100.00;99777.47;5102423;28;20019;-73
2023/07/31 11:13:53;;;;;;;4.65;1.73;;;;;;;21.32;100.00;99774.66;5101545;28;20573;-72
2023/07/31 11:16:24;;;;;;;4.63;1.80;;;;;;;21.50;100.00;99770.28;5119009;28;20404;-74
2023/07/31 11:18:55;;;;;;;3.58;1.60;;;;;;;21.67;100.00;99758.94;5108761;28;20192;-74
2023/07/31 11:21:26;;;;;;;8.20;2.30;;;;;;;21.87;100.00;99763.22;5122145;28;20418;-74
2023/07/31 11:23:57;;;;;;;3.47;1.70;;;;;;;21.81;100.00;99746.03;5121410;28;20065;-74
2023/07/31 11:26:28;;;;;;;4.15;1.60;;;;;;;22.32;100.00;99745.53;5119252;28;20072;-74
2023/07/31 11:28:58;;;;;;;2.72;1.40;;;;;;;22.83;100.00;99743.97;5120961;28;20038;-75
2023/07/31 11:31:29;;;;;;;4.68;1.60;;;;;;;22.85;99.44;99736.66;5119377;28;20388;-74
2023/07/31 11:34:06;;;;;;;3.80;1.80;;;;;;;22.74;98.49;99737.72;5122525;28;20442;-74
2023/07/31 11:36:36;;;;;;;3.88;1.88;;;;;;;22.74;95.74;99732.41;5121605;28;20027;-72
2023/07/31 11:39:10;;;;;;;3.28;1.42;;;;;;;22.66;92.42;99735.94;5118401;28;21794;-74
2023/07/31 11:41:41;;;;;;;3.50;1.48;;;;;;;22.13;97.57;99738.50;5125544;28;20119;-73